Time;durP1;ratioP1;P1;durP2;ratioP2;P2;SDS_P1;SDS_P2;PMS_P1;PMS_P2;Temp;Humidity;BMP_temperature;BMP_pressure;BME280_temperature;BME280_humidity;BME280_pressure;Samples;Min_cycle;Max_cycle;Signal;HPM_P1;HPM_P2
2022/11/18 00:00:04;;;;;;;30.35;18.92;;;;;;;8.86;100.00;92123.25;5089195;28;20117;-72
2022/11/18 00:02:31;;;;;;;29.73;18.88;;;;;;;8.79;100.00;92116.47;5089143;28;20101;-71
2022/11/18 00:04:58;;;;;;;30.08;19.10;;;;;;;8.75;100.00;92117.16;5089195;28;20430;-71
2022/11/18 00:07:24;;;;;;;34.97;24.38;;;;;;;8.73;100.00;92107.13;5088897;28;20070;-72
2022/11/18 00:09:51;;;;;;;36.47;21.98;;;;;;;8.75;100.00;92112.81;5088819;28;20447;-72
2022/11/18 00:15:03;;;;;;;31.42;19.80;;;;;;;8.69;100.00;92106.81;5088375;28;20093;-71
2022/11/18 00:17:31;;;;;;;28.08;17.75;;;;;;;8.66;100.00;92109.81;5089000;28;20561;-71
2022/11/18 00:19:58;;;;;;;25.08;16.05;;;;;;;8.64;100.00;92108.47;5089239;28;20040;-71
2022/11/18 00:22:25;;;;;;;23.35;14.13;;;;;;;8.61;100.00;92109.69;5089061;28;20097;-71
2022/11/18 00:24:51;;;;;;;21.58;13.60;;;;;;;8.63;100.00;92104.38;5088665;28;20489;-70
2022/11/18 00:27:19;;;;;;;17.73;11.55;;;;;;;8.64;100.00;92105.91;5089116;28;20059;-72
2022/11/18 00:29:46;;;;;;;19.70;12.35;;;;;;;8.64;100.00;92106.72;5088885;28;20044;-71
2022/11/18 00:32:13;;;;;;;18.80;11.38;;;;;;;8.63;100.00;92101.81;5088983;28;20048;-71
2022/11/18 00:34:41;;;;;;;19.88;11.75;;;;;;;8.61;100.00;92101.25;5088979;28;20047;-71
2022/11/18 00:37:08;;;;;;;18.63;11.50;;;;;;;8.63;100.00;92107.72;5089078;28;20051;-71
2022/11/18 00:39:34;;;;;;;22.98;12.63;;;;;;;8.65;100.00;92099.78;5089004;28;20097;-71
2022/11/18 00:44:49;;;;;;;21.10;12.65;;;;;;;8.61;100.00;92099.47;5088739;28;20047;-71
2022/11/18 00:47:16;;;;;;;21.38;13.02;;;;;;;8.57;100.00;92100.94;5088655;28;20052;-71
2022/11/18 00:49:43;;;;;;;19.23;11.85;;;;;;;8.48;100.00;92095.31;5088414;28;20493;-71
2022/11/18 00:52:09;;;;;;;17.00;10.23;;;;;;;8.45;100.00;92106.03;5088597;28;20048;-71
2022/11/18 00:54:36;;;;;;;19.98;12.50;;;;;;;8.30;100.00;92078.34;5088565;28;20097;-72
2022/11/18 00:57:04;;;;;;;21.98;12.93;;;;;;;8.43;100.00;92108.81;5085519;28;20102;-71
2022/11/18 00:59:31;;;;;;;19.80;13.45;;;;;;;8.42;100.00;92106.47;5088367;28;20083;-72
2022/11/18 01:01:59;;;;;;;21.30;13.32;;;;;;;8.38;100.00;92108.69;5088475;28;20040;-71
2022/11/18 01:04:25;;;;;;;19.83;12.30;;;;;;;8.37;100.00;92114.03;5088834;28;20074;-71
2022/11/18 01:06:52;;;;;;;23.35;11.90;;;;;;;8.35;100.00;92109.16;5088391;28;20052;-72
2022/11/18 01:09:19;;;;;;;21.58;11.50;;;;;;;8.33;100.00;92110.38;5091234;28;20116;-72
2022/11/18 01:14:30;;;;;;;18.65;10.68;;;;;;;8.27;100.00;92102.59;5091423;28;20051;-72
2022/11/18 01:16:57;;;;;;;19.75;10.27;;;;;;;8.25;100.00;92103.81;5091814;28;20091;-72
2022/11/18 01:19:25;;;;;;;16.80;9.52;;;;;;;8.23;100.00;92106.59;5092036;28;20501;-72
2022/11/18 01:21:52;;;;;;;14.02;8.50;;;;;;;8.24;100.00;92102.25;5092315;28;20044;-72
2022/11/18 01:24:19;;;;;;;14.25;7.80;;;;;;;8.24;100.00;92104.81;5092333;28;20121;-72
2022/11/18 01:26:45;;;;;;;12.88;9.05;;;;;;;8.14;100.00;92116.38;5092369;28;20105;-72
2022/11/18 01:29:12;;;;;;;39.42;28.42;;;;;;;7.41;100.00;92118.22;5108191;28;20115;-70
2022/11/18 01:31:39;;;;;;;45.45;30.63;;;;;;;7.12;100.00;92115.44;5112472;28;20047;-70
2022/11/18 01:34:05;;;;;;;42.38;27.25;;;;;;;7.15;100.00;92103.00;5112592;28;20582;-69
2022/11/18 01:36:33;;;;;;;38.65;25.73;;;;;;;7.15;100.00;92109.88;5113010;28;20044;-70
2022/11/18 01:39:01;;;;;;;36.03;25.15;;;;;;;7.19;100.00;92106.66;5112754;28;20120;-69
2022/11/18 01:41:27;;;;;;;44.67;31.00;;;;;;;7.07;100.00;92110.97;5112223;28;20645;-70
2022/11/18 01:43:57;;;;;;;46.45;32.47;;;;;;;6.92;100.00;92112.13;5112553;28;20048;-69
2022/11/18 01:46:25;;;;;;;49.70;35.35;;;;;;;6.90;100.00;92106.44;5112227;28;20052;-70
2022/11/18 01:48:55;;;;;;;55.03;38.90;;;;;;;6.66;100.00;92113.16;5112557;28;20382;-70
2022/11/18 01:51:26;;;;;;;54.83;37.38;;;;;;;6.70;100.00;92109.22;5112247;28;20048;-70
2022/11/18 01:53:59;;;;;;;47.33;33.65;;;;;;;6.62;100.00;92102.63;5102439;28;20406;-69
2022/11/18 01:56:32;;;;;;;55.92;38.85;;;;;;;6.51;100.00;92106.66;5095411;28;20135;-71
2022/11/18 01:59:03;;;;;;;62.83;40.97;;;;;;;6.23;100.00;92113.00;5112252;28;20048;-70
2022/11/18 02:01:30;;;;;;;68.70;41.15;;;;;;;5.87;100.00;92111.88;5111936;28;20048;-70
2022/11/18 02:03:57;;;;;;;66.82;40.13;;;;;;;5.30;100.00;92121.06;5112158;28;20043;-69
2022/11/18 02:06:24;;;;;;;61.90;37.08;;;;;;;5.15;100.00;92126.44;5112077;28;20093;-70
2022/11/18 02:08:51;;;;;;;63.25;36.15;;;;;;;4.74;100.00;92125.78;5111910;28;20079;-69
2022/11/18 02:14:06;;;;;;;50.15;29.25;;;;;;;4.33;100.00;92127.66;5111438;28;20129;-70
2022/11/18 02:16:45;;;;;;;45.25;28.25;;;;;;;4.49;100.00;92123.88;5111935;28;20195;-70
2022/11/18 02:19:32;;;;;;;43.83;28.05;;;;;;;4.40;100.00;92122.56;5111463;28;20139;-70
2022/11/18 02:22:08;;;;;;;48.53;26.05;;;;;;;4.34;100.00;92123.31;5111891;28;20100;-70
2022/11/18 02:24:43;;;;;;;45.13;26.83;;;;;;;4.42;100.00;92128.22;5105661;28;20089;-69
2022/11/18 02:27:46;;;;;;;37.78;23.55;;;;;;;4.16;100.00;92094.22;5103909;28;20051;-70
2022/11/18 02:30:17;;;;;;;39.80;23.80;;;;;;;4.36;100.00;92139.94;5111665;28;20048;-70
2022/11/18 02:32:49;;;;;;;40.13;23.77;;;;;;;4.26;100.00;92131.97;5111314;28;20451;-70
2022/11/18 02:35:22;;;;;;;44.00;26.92;;;;;;;4.33;100.00;92126.84;5111127;28;20093;-69
2022/11/18 02:37:54;;;;;;;48.70;31.45;;;;;;;4.40;100.00;92122.56;5111301;28;20052;-69
2022/11/18 02:40:24;;;;;;;38.95;25.00;;;;;;;4.50;100.00;92117.06;5111244;28;20047;-69
2022/11/18 02:42:56;;;;;;;37.38;25.95;;;;;;;4.60;100.00;92121.72;5111199;28;20039;-69
2022/11/18 02:45:26;;;;;;;45.95;27.65;;;;;;;4.65;100.00;92122.69;5111190;28;20047;-69
2022/11/18 02:47:56;;;;;;;40.53;25.33;;;;;;;4.63;100.00;92119.56;5111229;28;20109;-69
2022/11/18 02:50:26;;;;;;;32.90;21.60;;;;;;;4.60;100.00;92114.09;5106609;28;20543;-69
2022/11/18 02:52:57;;;;;;;30.92;20.88;;;;;;;4.58;100.00;92113.50;5081652;28;20040;-69
2022/11/18 02:55:27;;;;;;;35.13;20.45;;;;;;;4.45;100.00;92120.19;5076756;28;20564;-69
2022/11/18 02:57:56;;;;;;;32.72;20.45;;;;;;;4.45;100.00;92127.84;5092848;28;20059;-69
2022/11/18 03:00:24;;;;;;;31.27;21.00;;;;;;;4.40;100.00;92125.88;5082831;28;20051;-68
2022/11/18 03:02:51;;;;;;;45.20;27.75;;;;;;;4.37;100.00;92126.28;5110603;28;20047;-69
2022/11/18 03:05:25;;;;;;;44.40;20.95;;;;;;;4.25;100.00;92123.53;5106445;28;20094;-69
2022/11/18 03:07:57;;;;;;;30.15;20.45;;;;;;;4.48;100.00;92129.16;5102607;28;20051;-69
2022/11/18 03:10:30;;;;;;;32.78;20.02;;;;;;;4.41;100.00;92127.41;5110170;28;20099;-69
2022/11/18 03:13:05;;;;;;;25.73;16.77;;;;;;;4.41;100.00;92127.41;5110037;28;20574;-69
2022/11/18 03:15:43;;;;;;;27.70;18.20;;;;;;;4.57;100.00;92119.59;5110437;28;20409;-69
2022/11/18 03:18:18;;;;;;;28.48;19.17;;;;;;;4.64;100.00;92113.47;5110696;28;20047;-69
2022/11/18 03:20:50;;;;;;;29.33;18.60;;;;;;;4.82;100.00;92115.38;5110932;28;20101;-69
2022/11/18 03:23:27;;;;;;;28.17;18.33;;;;;;;4.90;100.00;92114.38;5110429;28;20079;-69
2022/11/18 03:25:58;;;;;;;26.55;16.35;;;;;;;4.65;100.00;92115.06;5110388;28;20104;-69
2022/11/18 03:28:30;;;;;;;26.30;17.75;;;;;;;4.69;100.00;92110.34;5110675;28;20104;-69
2022/11/18 03:31:04;;;;;;;24.98;15.45;;;;;;;4.68;100.00;92124.81;5109750;28;20048;-69
2022/11/18 03:33:35;;;;;;;24.13;14.93;;;;;;;4.68;100.00;92126.59;5110369;28;20409;-69
2022/11/18 03:36:06;;;;;;;24.20;14.68;;;;;;;4.66;100.00;92118.38;5110437;28;20047;-69
2022/11/18 03:38:36;;;;;;;23.40;14.98;;;;;;;4.68;100.00;92114.66;5110340;28;20047;-69
2022/11/18 03:41:06;;;;;;;21.17;14.18;;;;;;;4.55;100.00;92102.75;5110310;28;20055;-69
2022/11/18 03:43:38;;;;;;;21.50;14.43;;;;;;;4.50;100.00;92096.72;5110461;28;20131;-69
2022/11/18 03:46:10;;;;;;;24.10;15.80;;;;;;;4.38;100.00;92096.53;5110228;28;20425;-69
2022/11/18 03:48:43;;;;;;;25.63;15.60;;;;;;;4.62;100.00;92105.28;5110140;28;20093;-69
2022/11/18 03:51:13;;;;;;;26.15;15.55;;;;;;;4.49;100.00;92103.53;5109723;28;20048;-69
2022/11/18 03:53:45;;;;;;;30.25;16.55;;;;;;;4.50;100.00;92101.78;5104324;28;20161;-69
2022/11/18 03:56:18;;;;;;;21.23;16.50;;;;;;;4.56;100.00;92101.00;5089603;28;20474;-68
2022/11/18 03:58:52;;;;;;;21.20;14.90;;;;;;;4.52;100.00;92099.81;5110024;28;20059;-69
2022/11/18 04:01:26;;;;;;;21.75;14.23;;;;;;;4.59;100.00;92094.72;5109958;28;20043;-69
2022/11/18 04:03:53;;;;;;;25.50;13.93;;;;;;;4.54;100.00;92103.72;5110261;28;20051;-69
2022/11/18 04:06:30;;;;;;;21.38;14.10;;;;;;;4.58;100.00;92091.38;5110101;28;20108;-68
2022/11/18 04:09:00;;;;;;;27.80;20.60;;;;;;;4.73;100.00;92092.91;5109716;28;20135;-68
2022/11/18 04:14:19;;;;;;;22.02;17.23;;;;;;;4.59;100.00;92082.00;5109856;28;20054;-70
2022/11/18 04:16:52;;;;;;;22.63;14.30;;;;;;;4.65;100.00;92092.16;5109499;28;20047;-69
2022/11/18 04:19:19;;;;;;;19.23;12.05;;;;;;;4.31;100.00;92096.56;5109670;28;20143;-69
2022/11/18 04:21:46;;;;;;;23.15;14.00;;;;;;;4.35;100.00;92096.94;5109749;28;20130;-69
2022/11/18 04:24:13;;;;;;;23.88;14.73;;;;;;;4.30;100.00;92112.00;5109531;28;20043;-69
2022/11/18 04:26:39;;;;;;;23.77;14.88;;;;;;;4.29;100.00;92103.59;5109645;28;20096;-69
2022/11/18 04:29:06;;;;;;;23.30;14.07;;;;;;;4.43;100.00;92101.81;5109810;28;20051;-69
2022/11/18 04:31:33;;;;;;;26.42;15.25;;;;;;;4.33;100.00;92098.88;5109864;28;20055;-69
2022/11/18 04:34:01;;;;;;;27.45;18.67;;;;;;;4.33;100.00;92101.44;5109910;28;20120;-68
2022/11/18 04:36:28;;;;;;;26.23;14.25;;;;;;;4.28;100.00;92102.81;5109342;28;20047;-68
2022/11/18 04:38:54;;;;;;;45.53;20.33;;;;;;;4.31;100.00;92104.19;5109557;28;20497;-68
2022/11/18 04:41:54;;;;;;;36.25;17.20;;;;;;;4.32;100.00;92115.13;5109689;28;20468;-68
2022/11/18 04:44:11;;;;;;;19.50;13.18;;;;;;;4.25;100.00;92108.28;5113349;28;20138;-68
2022/11/18 04:46:39;;;;;;;32.55;19.42;;;;;;;4.22;100.00;92118.06;5113898;28;20048;-67
2022/11/18 04:49:07;;;;;;;26.27;20.48;;;;;;;4.25;100.00;92118.47;5113732;28;20394;-68
2022/11/18 04:51:34;;;;;;;30.73;24.25;;;;;;;4.16;100.00;92112.00;5113533;28;20104;-68
2022/11/18 04:54:00;;;;;;;24.92;16.58;;;;;;;4.12;100.00;92121.78;5101749;28;20044;-68
2022/11/18 04:56:27;;;;;;;23.17;18.75;;;;;;;4.12;100.00;92126.88;5096928;28;20121;-68
2022/11/18 04:58:54;;;;;;;20.45;15.40;;;;;;;4.10;100.00;92126.31;5113130;28;20043;-69
2022/11/18 05:01:20;;;;;;;26.10;18.50;;;;;;;4.13;100.00;92127.66;5103155;28;20052;-68
2022/11/18 05:03:47;;;;;;;25.45;18.67;;;;;;;4.16;100.00;92127.25;5109284;28;20105;-70
2022/11/18 05:06:15;;;;;;;19.73;13.65;;;;;;;4.14;100.00;92126.69;5113389;28;20051;-69
2022/11/18 05:08:42;;;;;;;18.40;11.80;;;;;;;3.91;100.00;92117.69;5112251;28;20047;-69
2022/11/18 05:13:50;;;;;;;25.30;12.85;;;;;;;3.70;100.00;92121.22;5112522;28;20047;-69
2022/11/18 05:16:17;;;;;;;23.50;11.32;;;;;;;3.55;100.00;92116.31;5112724;28;20093;-69
2022/11/18 05:18:44;;;;;;;17.58;12.90;;;;;;;3.68;100.00;92118.88;5112831;28;20389;-69
2022/11/18 05:21:11;;;;;;;21.83;14.25;;;;;;;3.70;100.00;92128.84;5112522;28;20047;-71
2022/11/18 05:23:39;;;;;;;21.48;12.52;;;;;;;3.64;100.00;92120.22;5112959;28;20104;-70
2022/11/18 05:26:06;;;;;;;25.33;13.57;;;;;;;3.48;100.00;92122.16;5112822;28;20417;-70
2022/11/18 05:28:34;;;;;;;32.97;17.45;;;;;;;3.39;100.00;92130.94;5112712;28;20039;-70
2022/11/18 05:31:00;;;;;;;29.73;17.52;;;;;;;3.68;100.00;92128.22;5112795;28;20051;-71
2022/11/18 05:33:27;;;;;;;29.10;19.38;;;;;;;3.81;100.00;92130.00;5112239;28;20109;-70
2022/11/18 05:35:54;;;;;;;34.95;19.85;;;;;;;4.02;100.00;92129.03;5112377;28;20051;-70
2022/11/18 05:38:20;;;;;;;34.50;19.90;;;;;;;3.93;100.00;92123.34;5112486;28;20080;-70
2022/11/18 05:40:48;;;;;;;32.42;16.98;;;;;;;3.81;100.00;92128.25;5112691;28;20051;-70
2022/11/18 05:43:14;;;;;;;24.33;14.75;;;;;;;3.95;100.00;92123.97;5112579;27;20465;-70
2022/11/18 05:45:43;;;;;;;21.10;14.10;;;;;;;4.07;100.00;92120.84;5112435;28;20180;-69
2022/11/18 05:48:09;;;;;;;23.30;15.82;;;;;;;4.24;100.00;92127.06;5111983;28;20576;-70
2022/11/18 05:50:38;;;;;;;21.75;12.88;;;;;;;4.37;100.00;92121.19;5112411;28;20048;-70
2022/11/18 05:53:05;;;;;;;22.30;17.52;;;;;;;4.10;100.00;92128.84;5111731;28;20092;-70
2022/11/18 05:55:38;;;;;;;33.58;24.40;;;;;;;4.24;100.00;92128.81;5075087;28;20097;-70
2022/11/18 05:58:06;;;;;;;29.88;22.10;;;;;;;4.06;100.00;92124.31;5087508;28;20468;-70
2022/11/18 06:00:33;;;;;;;28.33;18.65;;;;;;;4.16;100.00;92124.72;5111264;28;20100;-70
2022/11/18 06:03:01;;;;;;;29.27;17.23;;;;;;;4.00;100.00;92113.19;5111851;28;20073;-70
2022/11/18 06:05:28;;;;;;;22.65;13.93;;;;;;;4.27;100.00;92125.91;5111635;28;20113;-70
2022/11/18 06:07:57;;;;;;;30.60;18.55;;;;;;;4.21;100.00;92126.69;5111719;28;20048;-69
2022/11/18 06:10:29;;;;;;;28.60;15.90;;;;;;;4.08;100.00;92118.06;5111987;28;20580;-69
2022/11/18 06:12:59;;;;;;;27.23;16.27;;;;;;;4.03;100.00;92119.66;5111568;28;20039;-70
2022/11/18 06:15:31;;;;;;;29.02;17.80;;;;;;;4.15;100.00;92123.16;5111845;28;20093;-69
2022/11/18 06:18:01;;;;;;;39.42;22.20;;;;;;;4.38;100.00;92125.28;5097119;28;20139;-69
2022/11/18 06:20:29;;;;;;;43.83;27.40;;;;;;;4.25;100.00;92120.22;5111443;28;20881;-69
2022/11/18 06:22:58;;;;;;;51.97;27.52;;;;;;;4.37;100.00;92116.09;5111445;28;20075;-69
2022/11/18 06:25:25;;;;;;;55.25;29.33;;;;;;;4.49;100.00;92121.34;5110849;28;20047;-70
2022/11/18 06:27:56;;;;;;;46.45;24.67;;;;;;;4.66;100.00;92124.25;5111433;28;20047;-70
2022/11/18 06:30:23;;;;;;;49.17;24.85;;;;;;;4.65;100.00;92119.34;5111255;28;20093;-70
2022/11/18 06:32:51;;;;;;;43.88;22.00;;;;;;;4.62;100.00;92112.91;5111000;28;20570;-70
2022/11/18 06:35:17;;;;;;;47.38;20.33;;;;;;;4.72;100.00;92116.81;5111182;28;20104;-70
2022/11/18 06:37:44;;;;;;;36.72;19.10;;;;;;;4.72;100.00;92115.03;5111521;28;20079;-69
2022/11/18 06:40:12;;;;;;;47.90;29.50;;;;;;;4.42;100.00;92107.88;5110948;28;20104;-70
2022/11/18 06:45:23;;;;;;;46.75;25.63;;;;;;;4.53;100.00;92106.47;5111396;28;20078;-70
2022/11/18 06:47:51;;;;;;;44.17;25.98;;;;;;;4.43;100.00;92111.97;5110901;28;20047;-70
2022/11/18 06:50:17;;;;;;;54.38;28.02;;;;;;;4.47;100.00;92110.59;5111073;28;20132;-70
2022/11/18 06:52:44;;;;;;;59.63;25.50;;;;;;;4.35;100.00;92107.88;5110916;28;20105;-70
2022/11/18 06:55:11;;;;;;;53.17;26.50;;;;;;;4.41;100.00;92113.94;5082007;28;20505;-69
2022/11/18 06:57:37;;;;;;;47.75;25.73;;;;;;;4.59;100.00;92115.06;5110700;28;20059;-70
2022/11/18 07:00:05;;;;;;;54.60;29.10;;;;;;;4.59;100.00;92110.78;5111051;28;20077;-70
2022/11/18 07:02:32;;;;;;;51.90;27.92;;;;;;;4.73;100.00;92115.81;5110621;28;20040;-70
2022/11/18 07:05:00;;;;;;;54.42;29.13;;;;;;;4.62;100.00;92112.91;5110403;28;20048;-70
2022/11/18 07:07:27;;;;;;;56.25;23.67;;;;;;;4.62;100.00;92105.28;5110016;28;20109;-69
2022/11/18 07:09:54;;;;;;;48.72;23.42;;;;;;;4.68;100.00;92107.00;5110855;28;20117;-69
2022/11/18 07:12:20;;;;;;;43.65;25.73;;;;;;;4.78;100.00;92098.19;5110728;28;20059;-69
2022/11/18 07:14:47;;;;;;;64.20;30.42;;;;;;;4.58;100.00;92090.63;5110584;28;20052;-69
2022/11/18 07:17:14;;;;;;;66.40;27.55;;;;;;;4.72;100.00;92099.75;5081027;28;20052;-70
2022/11/18 07:19:40;;;;;;;95.95;33.28;;;;;;;4.69;100.00;92092.53;5110455;28;20043;-70
2022/11/18 07:22:09;;;;;;;132.80;39.63;;;;;;;5.00;100.00;92095.38;5110731;28;20458;-70
2022/11/18 07:24:36;;;;;;;80.85;28.25;;;;;;;4.89;100.00;92089.13;5082586;28;20088;-70
2022/11/18 07:27:03;;;;;;;64.75;26.00;;;;;;;5.12;100.00;92077.66;5110080;28;20126;-69
2022/11/18 07:29:30;;;;;;;73.00;35.58;;;;;;;5.33;100.00;92069.72;5110071;28;20489;-70
2022/11/18 07:31:56;;;;;;;64.72;33.58;;;;;;;5.59;100.00;92062.09;5111067;28;20055;-70
2022/11/18 07:34:23;;;;;;;65.13;34.78;;;;;;;5.82;100.00;92056.44;5109876;28;20109;-70
2022/11/18 07:36:50;;;;;;;71.15;36.00;;;;;;;6.01;100.00;92057.25;5109997;28;20094;-69
2022/11/18 07:39:18;;;;;;;75.03;39.50;;;;;;;6.03;100.00;92046.91;5109976;28;20498;-69
2022/11/18 07:41:44;;;;;;;137.27;91.70;;;;;;;6.05;100.00;92041.56;5110391;28;20046;-69
2022/11/18 07:44:12;;;;;;;95.90;55.35;;;;;;;5.98;100.00;92047.47;5110165;28;20081;-69
2022/11/18 07:46:38;;;;;;;68.32;34.47;;;;;;;6.01;100.00;92025.88;5110086;28;20051;-70
2022/11/18 07:49:07;;;;;;;65.43;33.67;;;;;;;6.28;100.00;92053.72;5110313;28;20471;-70
2022/11/18 07:51:36;;;;;;;64.80;33.42;;;;;;;6.28;100.00;92059.59;5109814;28;20175;-70
2022/11/18 07:54:06;;;;;;;72.10;37.17;;;;;;;6.50;100.00;92071.94;5097832;28;20094;-70
2022/11/18 07:56:34;;;;;;;68.15;32.90;;;;;;;6.78;100.00;92085.19;5095003;28;20142;-70
2022/11/18 07:59:01;;;;;;;65.88;31.85;;;;;;;6.80;100.00;92089.06;5110070;28;20105;-69
2022/11/18 08:01:29;;;;;;;52.53;29.75;;;;;;;6.97;100.00;92095.38;5110129;28;20083;-70
2022/11/18 08:03:56;;;;;;;59.30;30.23;;;;;;;7.17;100.00;92100.25;5109781;28;20046;-69
2022/11/18 08:06:23;;;;;;;48.88;27.73;;;;;;;7.33;100.00;92097.06;5109953;28;20080;-70
2022/11/18 08:08:52;;;;;;;47.58;26.90;;;;;;;7.41;100.00;92078.09;5109630;28;20051;-69
2022/11/18 08:11:19;;;;;;;45.55;24.77;;;;;;;7.68;100.00;92089.75;5108743;28;20080;-69
2022/11/18 08:13:48;;;;;;;29.88;19.85;;;;;;;7.88;100.00;92081.78;5109856;28;20047;-70
2022/11/18 08:16:16;;;;;;;33.10;21.45;;;;;;;7.77;100.00;92070.50;5103268;28;20079;-69
2022/11/18 08:18:43;;;;;;;31.77;22.67;;;;;;;7.79;100.00;92072.84;5085083;28;20054;-70
2022/11/18 08:21:11;;;;;;;33.38;26.05;;;;;;;7.81;100.00;92071.63;5099053;28;20079;-70
2022/11/18 08:23:38;;;;;;;26.42;18.85;;;;;;;7.87;100.00;92070.00;5113318;28;20093;-70
2022/11/18 08:26:09;;;;;;;27.33;19.20;;;;;;;7.97;100.00;92072.00;5113985;28;20097;-69
2022/11/18 08:28:36;;;;;;;32.33;22.20;;;;;;;8.39;100.00;92066.75;5113893;28;20587;-70
2022/11/18 08:31:11;;;;;;;37.30;24.60;;;;;;;8.48;100.00;92063.84;5113961;28;20043;-70
2022/11/18 08:33:38;;;;;;;36.17;24.42;;;;;;;8.51;100.00;92066.75;5113793;28;20039;-69
2022/11/18 08:36:09;;;;;;;36.83;20.75;;;;;;;8.68;100.00;92061.75;5113838;28;20051;-70
2022/11/18 08:38:36;;;;;;;33.03;20.52;;;;;;;8.90;100.00;92050.88;5113468;28;20505;-69
2022/11/18 08:41:05;;;;;;;31.27;20.55;;;;;;;9.20;100.00;92049.09;5113470;28;20079;-70
2022/11/18 08:43:33;;;;;;;22.48;13.20;;;;;;;9.57;100.00;92027.38;5113897;28;20047;-70
2022/11/18 08:45:59;;;;;;;15.73;8.13;;;;;;;10.25;100.00;92011.19;5113560;28;20394;-70
2022/11/18 08:48:27;;;;;;;13.90;5.78;;;;;;;10.86;100.00;92014.72;5113382;28;20096;-70
2022/11/18 08:50:54;;;;;;;9.80;4.72;;;;;;;11.06;100.00;92022.66;5113219;28;20039;-70
2022/11/18 08:53:21;;;;;;;11.02;5.03;;;;;;;11.23;100.00;92022.59;5112675;28;20134;-70
2022/11/18 08:55:48;;;;;;;9.10;3.88;;;;;;;11.41;100.00;92015.53;5085456;28;20570;-70
2022/11/18 08:58:15;;;;;;;9.70;3.83;;;;;;;11.66;100.00;92021.16;5113040;28;20139;-70
2022/11/18 09:00:42;;;;;;;9.52;3.95;;;;;;;11.68;100.00;91998.50;5113118;28;20048;-70
2022/11/18 09:03:08;;;;;;;11.40;5.43;;;;;;;11.99;100.00;92006.47;5113502;28;20052;-70
2022/11/18 09:05:36;;;;;;;10.40;4.05;;;;;;;12.16;100.00;92001.94;5113467;28;20097;-70
2022/11/18 09:08:04;;;;;;;8.95;4.53;;;;;;;12.40;100.00;92018.78;5113035;28;20537;-70
2022/11/18 09:10:30;;;;;;;9.05;4.78;;;;;;;12.66;100.00;92024.84;5111390;28;20263;-70
2022/11/18 09:12:57;;;;;;;12.88;5.03;;;;;;;12.89;100.00;92019.50;5100370;28;20040;-70
2022/11/18 09:15:25;;;;;;;12.60;4.47;;;;;;;13.02;100.00;92013.13;5113304;28;20124;-70
2022/11/18 09:17:52;;;;;;;23.83;14.85;;;;;;;13.31;100.00;92030.69;5094449;28;20527;-70
2022/11/18 09:20:19;;;;;;;17.42;7.45;;;;;;;13.49;100.00;92030.25;5096665;28;20092;-70
2022/11/18 09:22:47;;;;;;;24.38;12.65;;;;;;;13.71;100.00;92025.88;5111903;28;20462;-70
2022/11/18 09:25:13;;;;;;;11.07;7.50;;;;;;;13.85;100.00;92024.31;5112630;28;20048;-70
2022/11/18 09:27:40;;;;;;;15.20;6.55;;;;;;;14.02;100.00;92023.28;5112525;28;20475;-70
2022/11/18 09:30:08;;;;;;;19.00;9.57;;;;;;;14.20;100.00;92016.78;5111741;28;20104;-70
2022/11/18 09:32:34;;;;;;;8.23;3.50;;;;;;;14.27;100.00;92016.53;5112804;28;20126;-70
2022/11/18 09:35:01;;;;;;;8.40;3.28;;;;;;;14.19;100.00;92009.31;5112605;28;20088;-70
2022/11/18 09:37:28;;;;;;;8.80;3.55;;;;;;;14.25;100.00;91992.75;5112196;28;20048;-70
2022/11/18 09:39:56;;;;;;;14.27;4.43;;;;;;;14.21;100.00;91987.34;5112658;28;20126;-71
2022/11/18 09:42:39;;;;;;;11.50;5.82;;;;;;;14.30;100.00;91974.66;5112726;28;20051;-70
2022/11/18 09:45:17;;;;;;;10.27;4.93;;;;;;;14.26;100.00;91971.09;5112567;28;20044;-70
2022/11/18 09:47:44;;;;;;;11.75;6.32;;;;;;;14.36;100.00;91978.03;5112482;28;20105;-71
2022/11/18 09:50:13;;;;;;;9.18;3.15;;;;;;;14.38;100.00;91976.72;5112255;28;20047;-70
2022/11/18 09:52:45;;;;;;;7.68;3.33;;;;;;;14.46;100.00;91957.31;5112187;28;20079;-70
2022/11/18 09:55:16;;;;;;;20.75;9.93;;;;;;;14.56;100.00;91956.50;5083439;28;20052;-71
2022/11/18 09:57:47;;;;;;;13.07;4.20;;;;;;;14.66;100.00;91960.84;5112424;28;20132;-70
2022/11/18 10:00:15;;;;;;;9.85;4.22;;;;;;;14.72;100.00;91953.84;5111933;28;20489;-71
2022/11/18 10:02:51;;;;;;;8.65;4.10;;;;;;;14.76;100.00;91955.66;5112244;28;20048;-70
2022/11/18 10:05:20;;;;;;;11.23;5.85;;;;;;;14.88;100.00;91959.75;5111808;28;20052;-70
2022/11/18 10:07:58;;;;;;;14.85;8.57;;;;;;;14.93;100.00;91954.53;5112065;28;20040;-71
2022/11/18 10:10:38;;;;;;;7.07;4.10;;;;;;;15.05;100.00;91957.56;5111817;28;20073;-70
2022/11/18 10:13:18;;;;;;;8.80;4.07;;;;;;;15.07;100.00;91950.34;5111679;28;20564;-71
2022/11/18 10:15:55;;;;;;;13.60;6.28;;;;;;;15.22;100.00;91946.09;5112075;28;20167;-71
2022/11/18 10:18:28;;;;;;;12.65;8.43;;;;;;;15.29;100.00;91945.78;5112015;28;20050;-71
2022/11/18 10:21:00;;;;;;;13.40;6.80;;;;;;;15.30;100.00;91949.91;5111838;28;20047;-70
2022/11/18 10:23:33;;;;;;;13.02;5.32;;;;;;;15.31;100.00;91939.31;5111979;28;20126;-70
2022/11/18 10:26:01;;;;;;;11.98;6.60;;;;;;;15.30;100.00;91945.53;5111297;28;20104;-70
2022/11/18 10:28:30;;;;;;;15.60;8.23;;;;;;;15.33;100.00;91941.63;5111669;28;20052;-71
2022/11/18 10:31:04;;;;;;;12.88;7.28;;;;;;;15.43;100.00;91935.59;5111489;28;20087;-71
2022/11/18 10:33:31;;;;;;;13.45;8.68;;;;;;;15.60;100.00;91945.56;5111289;28;20471;-71
2022/11/18 10:36:19;;;;;;;16.45;10.20;;;;;;;15.61;99.68;91934.91;5111339;28;20073;-71
2022/11/18 10:38:46;;;;;;;9.43;6.43;;;;;;;15.49;97.03;91926.75;5111559;28;20055;-71
2022/11/18 10:41:21;;;;;;;13.63;8.23;;;;;;;15.43;97.71;91925.25;5111216;28;20139;-71
2022/11/18 10:43:51;;;;;;;11.65;6.05;;;;;;;15.35;99.10;91916.25;5110871;28;20113;-71
2022/11/18 10:46:24;;;;;;;9.20;4.90;;;;;;;15.38;99.45;91914.94;5110842;28;20565;-70
2022/11/18 10:49:15;;;;;;;8.50;4.47;;;;;;;15.33;99.12;91898.41;5111019;28;20050;-71
2022/11/18 10:51:43;;;;;;;4.90;2.10;;;;;;;15.18;99.84;91904.47;5111117;28;20047;-70
2022/11/18 10:54:15;;;;;;;8.95;4.47;;;;;;;15.17;100.00;91900.34;5096650;28;20044;-70
2022/11/18 10:56:50;;;;;;;9.43;5.55;;;;;;;15.19;100.00;91900.84;5098638;28;20063;-71
2022/11/18 10:59:26;;;;;;;25.40;14.35;;;;;;;15.31;99.15;91904.88;5085118;28;20053;-70
2022/11/18 11:02:02;;;;;;;23.98;12.00;;;;;;;15.39;99.14;91917.25;5111087;28;20148;-71
2022/11/18 11:04:30;;;;;;;29.90;16.13;;;;;;;15.53;100.00;91911.44;5110649;28;20089;-70
2022/11/18 11:06:58;;;;;;;48.70;23.98;;;;;;;15.58;97.39;91911.41;5110943;28;20096;-71
2022/11/18 11:09:29;;;;;;;14.98;6.30;;;;;;;15.63;97.57;91921.72;5110721;28;20540;-71
2022/11/18 11:12:00;;;;;;;24.27;11.52;;;;;;;15.61;96.47;91918.63;5111241;28;20462;-71
2022/11/18 11:14:32;;;;;;;47.58;22.65;;;;;;;15.66;98.31;91913.41;5082532;28;20056;-71
2022/11/18 11:17:04;;;;;;;51.72;23.42;;;;;;;15.60;97.88;91910.09;5110865;28;20051;-71
2022/11/18 11:19:38;;;;;;;40.00;17.17;;;;;;;15.67;98.43;91903.81;5110565;28;20451;-71
2022/11/18 11:22:10;;;;;;;41.80;16.25;;;;;;;15.59;99.18;91892.25;5110466;28;20089;-71
2022/11/18 11:24:37;;;;;;;38.20;16.33;;;;;;;15.73;98.34;91908.69;5110004;28;20104;-71
2022/11/18 11:27:46;;;;;;;32.70;13.30;;;;;;;15.69;97.22;91897.31;5110650;28;20052;-71
2022/11/18 11:30:18;;;;;;;34.60;14.30;;;;;;;15.59;98.41;91900.78;5047419;28;20091;-71
2022/11/18 11:33:11;;;;;;;98.28;37.83;;;;;;;15.60;99.16;91904.16;5047294;28;20053;-71
2022/11/18 11:35:47;;;;;;;32.97;12.98;;;;;;;15.58;100.00;91899.25;5052927;28;20047;-71
2022/11/18 11:38:17;;;;;;;;;;;;;;;15.50;100.00;91902.41;5109406;28;20106;-70
2022/11/18 11:40:58;;;;;;;41.97;17.98;;;;;;;15.39;100.00;91900.94;5110009;28;19920;-70
2022/11/18 11:43:34;;;;;;;14.38;6.57;;;;;;;15.24;100.00;91892.28;5109682;28;20051;-71
2022/11/18 11:46:17;;;;;;;7.90;3.35;;;;;;;15.15;100.00;91884.34;5110297;28;20039;-70
2022/11/18 11:48:56;;;;;;;23.67;9.18;;;;;;;15.17;100.00;91881.47;5110199;28;20104;-71